createdAt,value
2019-06-15T00:01:59.830Z,2.97
2019-06-15T00:04:26.311Z,3.20
2019-06-15T00:06:52.692Z,2.53
2019-06-15T00:09:19.054Z,2.90
2019-06-15T00:11:45.344Z,2.80
2019-06-15T00:14:11.805Z,2.70
2019-06-15T00:16:38.211Z,2.73
2019-06-15T00:19:04.657Z,2.70
2019-06-15T00:21:41.153Z,2.77
2019-06-15T00:24:07.549Z,3.30
2019-06-15T00:26:35.291Z,3.00
2019-06-15T00:29:01.685Z,2.97
2019-06-15T00:31:28.489Z,2.83
2019-06-15T00:33:55.038Z,2.37
2019-06-15T00:36:21.647Z,2.73
2019-06-15T00:38:48.097Z,2.70
2019-06-15T00:41:14.498Z,2.67
2019-06-15T00:43:40.875Z,2.57
2019-06-15T00:46:07.415Z,2.90
2019-06-15T00:48:33.941Z,2.77
2019-06-15T00:51:00.171Z,2.50
2019-06-15T00:53:26.577Z,2.80
2019-06-15T00:55:53.021Z,3.27
2019-06-15T00:58:19.465Z,3.10
2019-06-15T01:00:46.084Z,3.00
2019-06-15T01:03:12.441Z,2.90
2019-06-15T01:05:38.829Z,2.70
2019-06-15T01:08:10.369Z,3.10
2019-06-15T01:10:46.928Z,2.87
2019-06-15T01:13:38.243Z,3.40
2019-06-15T01:16:04.739Z,3.93
2019-06-15T01:18:31.215Z,2.50
2019-06-15T01:20:57.681Z,2.73
2019-06-15T01:23:24.273Z,3.03
2019-06-15T01:25:55.833Z,2.90
2019-06-15T01:28:22.209Z,2.50
2019-06-15T01:30:48.678Z,3.00
2019-06-15T01:33:15.298Z,2.50
2019-06-15T01:35:41.851Z,2.43
2019-06-15T01:38:08.318Z,2.97
2019-06-15T01:40:35.641Z,2.67
2019-06-15T01:43:07.132Z,3.00
2019-06-15T01:45:33.615Z,2.93
2019-06-15T01:47:59.971Z,2.60
2019-06-15T01:50:26.531Z,3.07
2019-06-15T01:52:52.869Z,2.67
2019-06-15T01:55:29.399Z,3.23
2019-06-15T01:57:56.205Z,2.60
2019-06-15T02:00:28.471Z,2.90
2019-06-15T02:02:59.957Z,2.47
2019-06-15T02:05:26.442Z,3.13
2019-06-15T02:07:52.820Z,2.60
2019-06-15T02:10:27.615Z,2.40
2019-06-15T02:12:53.929Z,2.80
2019-06-15T02:15:20.474Z,2.80
2019-06-15T02:17:56.953Z,2.90
2019-06-15T02:20:23.580Z,2.70
2019-06-15T02:22:50.058Z,2.50
2019-06-15T02:25:34.871Z,2.20
2019-06-15T02:27:51.630Z,2.90
2019-06-15T02:30:26.233Z,2.63
2019-06-15T02:32:53.970Z,2.70
2019-06-15T02:35:20.473Z,2.37
2019-06-15T02:37:47.010Z,2.60
2019-06-15T02:40:13.565Z,2.60
2019-06-15T02:42:40.084Z,2.43
2019-06-15T02:45:06.680Z,2.50
2019-06-15T02:47:33.150Z,2.57
2019-06-15T02:49:59.718Z,2.70
2019-06-15T02:52:26.438Z,2.77
2019-06-15T02:54:57.823Z,2.60
2019-06-15T02:57:34.556Z,2.23
2019-06-15T03:00:01.148Z,2.80
2019-06-15T03:02:27.643Z,2.20
2019-06-15T03:04:54.043Z,3.40
2019-06-15T03:07:20.403Z,2.30
2019-06-15T03:09:46.896Z,2.17
2019-06-15T03:12:13.394Z,2.70
2019-06-15T03:14:39.907Z,2.60
2019-06-15T03:17:06.176Z,2.50
2019-06-15T03:19:32.455Z,2.87
2019-06-15T03:21:58.941Z,2.50
2019-06-15T03:24:25.216Z,2.70
2019-06-15T03:26:51.787Z,2.20
2019-06-15T03:29:18.379Z,2.60
2019-06-15T03:31:44.861Z,2.57
2019-06-15T03:34:21.415Z,2.70
2019-06-15T03:36:47.904Z,2.67
2019-06-15T03:39:14.406Z,2.63
2019-06-15T03:41:40.868Z,2.93
2019-06-15T03:44:22.323Z,2.27
2019-06-15T03:46:48.686Z,2.20
2019-06-15T03:49:15.345Z,2.43
2019-06-15T03:51:46.609Z,2.40
2019-06-15T03:54:13.053Z,2.70
2019-06-15T03:56:39.657Z,2.37
2019-06-15T03:59:08.119Z,2.27
2019-06-15T04:01:41.185Z,2.43
2019-06-15T04:04:08.158Z,2.03
2019-06-15T04:06:34.613Z,2.70
2019-06-15T04:09:01.097Z,2.27
2019-06-15T04:11:27.513Z,2.23
2019-06-15T04:13:53.783Z,2.10
2019-06-15T04:16:25.375Z,2.70
2019-06-15T04:18:51.940Z,2.40
2019-06-15T04:21:20.403Z,2.23
2019-06-15T04:23:46.917Z,2.30
2019-06-15T04:26:13.360Z,2.53
2019-06-15T04:28:39.813Z,2.33
2019-06-15T04:31:07.632Z,1.90
2019-06-15T04:33:34.192Z,2.10
2019-06-15T04:36:00.787Z,1.73
2019-06-15T04:38:27.376Z,2.27
2019-06-15T04:40:53.887Z,1.90
2019-06-15T04:43:20.389Z,1.80
2019-06-15T04:45:51.919Z,1.90
2019-06-15T04:48:18.412Z,2.33
2019-06-15T04:50:44.855Z,2.50
2019-06-15T04:53:14.185Z,2.23
2019-06-15T04:55:39.942Z,2.00
2019-06-15T04:58:06.417Z,2.33
2019-06-15T05:00:32.953Z,2.23
2019-06-15T05:02:59.487Z,2.40
2019-06-15T05:05:26.042Z,2.23
2019-06-15T05:07:52.594Z,1.97
2019-06-15T05:10:19.095Z,2.30
2019-06-15T05:12:50.381Z,1.90
2019-06-15T05:15:16.989Z,1.80
2019-06-15T05:17:46.143Z,2.20
2019-06-15T05:20:11.878Z,2.20
2019-06-15T05:22:38.252Z,1.80
2019-06-15T05:25:05.279Z,2.10
2019-06-15T05:27:31.560Z,1.90
2019-06-15T05:29:57.938Z,2.17
2019-06-15T05:32:24.610Z,1.93
2019-06-15T05:35:06.680Z,1.83
2019-06-15T05:37:33.045Z,1.93
2019-06-15T05:40:05.124Z,1.70
2019-06-15T05:42:31.579Z,1.70
2019-06-15T05:44:58.053Z,1.90
2019-06-15T05:47:24.589Z,1.90
2019-06-15T05:49:50.951Z,2.23
2019-06-15T05:52:17.324Z,1.80
2019-06-15T05:54:45.106Z,1.50
2019-06-15T05:57:21.323Z,2.00
2019-06-15T05:59:39.769Z,1.70
2019-06-15T06:02:11.326Z,1.90
2019-06-15T06:04:37.821Z,1.40
2019-06-15T06:07:04.282Z,1.43
2019-06-15T06:09:30.754Z,1.97
2019-06-15T06:11:57.063Z,1.57
2019-06-15T06:14:38.433Z,1.70
2019-06-15T06:17:09.905Z,1.40
2019-06-15T06:19:36.175Z,2.10
2019-06-15T06:22:12.551Z,1.63
2019-06-15T06:24:38.935Z,2.17
2019-06-15T06:27:05.527Z,1.67
2019-06-15T06:29:32.020Z,1.60
2019-06-15T06:31:58.401Z,1.63
2019-06-15T06:34:24.897Z,1.57
2019-06-15T06:36:51.259Z,1.70
2019-06-15T06:39:17.730Z,2.77
2019-06-15T06:41:44.111Z,1.70
2019-06-15T06:44:15.706Z,1.80
2019-06-15T06:46:42.301Z,1.60
2019-06-15T06:49:08.662Z,1.80
2019-06-15T06:51:34.964Z,2.50
2019-06-15T06:54:06.400Z,2.10
2019-06-15T06:56:34.176Z,1.70
2019-06-15T06:59:00.567Z,1.53
2019-06-15T07:01:26.964Z,1.53
2019-06-15T07:03:53.752Z,2.30
2019-06-15T07:06:20.004Z,1.90
2019-06-15T07:08:56.850Z,1.30
2019-06-15T07:11:23.228Z,1.60
2019-06-15T07:13:49.627Z,1.53
2019-06-15T07:16:17.799Z,2.02
2019-06-15T07:18:44.439Z,1.42
2019-06-15T07:21:25.842Z,1.62
2019-06-15T07:23:57.531Z,1.50
2019-06-15T07:26:24.004Z,1.70
2019-06-15T07:28:50.305Z,1.30
2019-06-15T07:31:16.756Z,1.67
2019-06-15T07:33:43.290Z,1.70
2019-06-15T07:36:09.726Z,1.60
2019-06-15T07:38:36.304Z,1.82
2019-06-15T07:41:02.777Z,1.85
2019-06-15T07:43:29.184Z,1.60
2019-06-15T07:45:55.648Z,1.80
2019-06-15T07:48:27.375Z,1.98
2019-06-15T07:51:03.757Z,1.67
2019-06-15T07:53:35.303Z,1.50
2019-06-15T07:56:01.772Z,1.62
2019-06-15T07:58:28.244Z,1.42
2019-06-15T08:00:54.609Z,2.02
2019-06-15T08:03:20.880Z,1.80
2019-06-15T08:05:47.413Z,1.80
2019-06-15T08:08:13.862Z,1.80
2019-06-15T08:10:40.269Z,1.52
2019-06-15T08:13:06.891Z,1.40
2019-06-15T08:15:33.309Z,1.40
2019-06-15T08:17:59.782Z,1.45
2019-06-15T08:20:29.974Z,1.60
2019-06-15T08:22:56.543Z,1.80
2019-06-15T08:25:28.030Z,1.90
2019-06-15T08:27:59.545Z,1.50
2019-06-15T08:30:29.625Z,1.55
2019-06-15T08:32:56.121Z,1.70
2019-06-15T08:35:27.437Z,1.65
2019-06-15T08:37:54.113Z,1.32
2019-06-15T08:40:20.883Z,1.62
2019-06-15T08:42:47.349Z,1.75
2019-06-15T08:45:13.893Z,1.40
2019-06-15T08:47:40.351Z,1.45
2019-06-15T08:50:06.941Z,1.50
2019-06-15T08:52:33.409Z,1.35
2019-06-15T08:54:59.921Z,1.40
2019-06-15T08:57:26.476Z,1.30
2019-06-15T08:59:57.997Z,1.20
2019-06-15T09:02:24.624Z,1.25
2019-06-15T09:04:51.373Z,1.30
2019-06-15T09:07:17.745Z,1.60
2019-06-15T09:09:44.178Z,1.50
2019-06-15T09:12:10.641Z,1.55
2019-06-15T09:14:42.343Z,1.40
2019-06-15T09:17:08.841Z,1.72
2019-06-15T09:19:35.370Z,1.62
2019-06-15T09:22:02.005Z,1.77
2019-06-15T09:24:28.507Z,1.57
2019-06-15T09:26:55.033Z,1.52
2019-06-15T09:29:21.616Z,1.52
2019-06-15T09:31:47.990Z,1.40
2019-06-15T09:34:18.885Z,1.80
2019-06-15T09:36:42.911Z,1.52
2019-06-15T09:39:09.313Z,1.62
2019-06-15T09:41:35.947Z,2.00
2019-06-15T09:44:02.489Z,1.90
2019-06-15T09:46:29.024Z,1.72
2019-06-15T09:48:55.503Z,1.98
2019-06-15T09:51:21.993Z,1.70
2019-06-15T09:53:48.477Z,2.30
2019-06-15T09:56:20.127Z,1.32
2019-06-15T09:58:46.416Z,1.50
2019-06-15T10:01:12.794Z,1.62
2019-06-15T10:03:39.304Z,1.60
2019-06-15T10:06:05.847Z,1.95
2019-06-15T10:08:37.377Z,1.85
2019-06-15T10:11:03.862Z,2.05
2019-06-15T10:13:31.542Z,1.47
2019-06-15T10:15:58.165Z,1.55
2019-06-15T10:18:24.746Z,1.77
2019-06-15T10:20:51.132Z,1.40
2019-06-15T10:23:17.409Z,1.50
2019-06-15T10:25:50.472Z,2.10
2019-06-15T10:28:16.995Z,2.27
2019-06-15T10:30:43.392Z,1.50
2019-06-15T10:33:09.922Z,1.98
2019-06-15T10:35:40.298Z,1.80
2019-06-15T10:38:11.780Z,1.50
2019-06-15T10:40:38.304Z,1.40
2019-06-15T10:43:04.672Z,1.52
2019-06-15T10:45:33.054Z,1.60
2019-06-15T10:47:59.714Z,1.52
2019-06-15T10:50:26.136Z,1.50
2019-06-15T10:52:52.653Z,1.55
2019-06-15T10:55:19.135Z,1.47
2019-06-15T10:57:45.570Z,2.15
2019-06-15T11:00:17.573Z,2.65
2019-06-15T11:02:43.973Z,1.50
2019-06-15T11:05:18.455Z,1.40
2019-06-15T11:07:44.933Z,1.50
2019-06-15T11:10:14.501Z,1.45
2019-06-15T11:12:46.263Z,2.30
2019-06-15T11:15:09.513Z,1.72
2019-06-15T11:17:37.996Z,1.70
2019-06-15T11:20:04.749Z,1.50
2019-06-15T11:22:31.113Z,2.30
2019-06-15T11:24:57.606Z,2.05
2019-06-15T11:27:29.029Z,1.60
2019-06-15T11:29:55.303Z,2.00
2019-06-15T11:32:21.656Z,1.67
2019-06-15T11:34:48.135Z,1.47
2019-06-15T11:37:14.618Z,1.50
2019-06-15T11:39:41.956Z,1.22
2019-06-15T11:42:08.349Z,1.50
2019-06-15T11:44:34.771Z,1.85
2019-06-15T11:47:01.352Z,2.00
2019-06-15T11:49:27.950Z,1.37
2019-06-15T11:51:54.357Z,1.52
2019-06-15T11:54:20.898Z,1.80
2019-06-15T11:56:47.398Z,1.80
2019-06-15T11:59:13.905Z,1.72
2019-06-15T12:01:42.306Z,1.77
2019-06-15T12:04:08.714Z,1.55
2019-06-15T12:06:35.269Z,1.40
2019-06-15T12:09:01.865Z,1.40
2019-06-15T12:11:28.452Z,1.60
2019-06-15T12:13:54.832Z,1.50
2019-06-15T12:16:21.283Z,1.72
2019-06-15T12:18:47.756Z,2.30
2019-06-15T12:21:14.228Z,1.80
2019-06-15T12:23:40.494Z,1.90
2019-06-15T12:26:07.022Z,2.00
2019-06-15T12:28:33.676Z,1.75
2019-06-15T12:31:00.408Z,1.50
2019-06-15T12:33:27.009Z,1.65
2019-06-15T12:35:53.374Z,1.20
2019-06-15T12:38:19.771Z,1.57
2019-06-15T12:40:46.356Z,1.60
2019-06-15T12:43:12.806Z,1.57
2019-06-15T12:45:39.715Z,1.57
2019-06-15T12:48:06.118Z,1.57
2019-06-15T12:50:32.609Z,1.70
2019-06-15T12:52:59.248Z,1.70
2019-06-15T12:55:25.836Z,2.17
2019-06-15T12:57:53.095Z,1.52
2019-06-15T13:00:23.159Z,1.70
2019-06-15T13:02:49.675Z,1.55
2019-06-15T13:05:16.082Z,1.70
2019-06-15T13:07:42.588Z,1.57
2019-06-15T13:10:09.253Z,2.20
2019-06-15T13:12:35.615Z,1.40
2019-06-15T13:15:03.345Z,1.40
2019-06-15T13:17:29.781Z,1.70
2019-06-15T13:19:56.279Z,2.98
2019-06-15T13:22:22.750Z,1.72
2019-06-15T13:24:49.138Z,1.57
2019-06-15T13:27:15.637Z,1.40
2019-06-15T13:29:42.004Z,1.80
2019-06-15T13:32:08.460Z,1.42
2019-06-15T13:34:34.840Z,1.67
2019-06-15T13:37:01.450Z,1.30
2019-06-15T13:39:27.974Z,1.65
2019-06-15T13:41:54.449Z,1.30
2019-06-15T13:44:20.889Z,1.85
2019-06-15T13:46:47.135Z,1.80
2019-06-15T13:49:13.600Z,1.50
2019-06-15T13:51:40.012Z,1.52
2019-06-15T13:54:06.526Z,1.70
2019-06-15T13:56:33.083Z,1.98
2019-06-15T13:58:59.647Z,1.70
2019-06-15T14:01:34.095Z,1.50
2019-06-15T14:03:54.357Z,1.60
2019-06-15T14:06:20.775Z,2.10
2019-06-15T14:08:47.211Z,2.22
2019-06-15T14:11:13.772Z,1.60
2019-06-15T14:13:40.268Z,1.32
2019-06-15T14:16:06.754Z,1.70
2019-06-15T14:18:33.352Z,1.50
2019-06-15T14:20:59.913Z,1.37
2019-06-15T14:23:26.299Z,1.50
2019-06-15T14:25:52.738Z,1.37
2019-06-15T14:28:19.149Z,1.70
2019-06-15T14:30:45.830Z,1.80
2019-06-15T14:33:12.323Z,1.45
2019-06-15T14:35:38.684Z,1.42
2019-06-15T14:38:05.092Z,1.57
2019-06-15T14:40:31.448Z,1.50
2019-06-15T14:42:57.703Z,2.30
2019-06-15T14:45:24.073Z,1.45
2019-06-15T14:47:50.549Z,1.80
2019-06-15T14:50:17.029Z,1.40
2019-06-15T14:52:43.414Z,2.40
2019-06-15T14:55:10.079Z,1.90
2019-06-15T14:57:36.444Z,1.75
2019-06-15T15:00:08.354Z,1.50
2019-06-15T15:02:33.234Z,1.62
2019-06-15T15:04:59.638Z,1.60
2019-06-15T15:07:26.459Z,3.57
2019-06-15T15:09:52.913Z,2.07
2019-06-15T15:12:19.393Z,1.53
2019-06-15T15:14:46.980Z,1.40
2019-06-15T15:17:13.544Z,1.80
2019-06-15T15:19:40.014Z,1.80
2019-06-15T15:22:06.519Z,2.13
2019-06-15T15:24:33.188Z,2.07
2019-06-15T15:26:59.682Z,2.10
2019-06-15T15:29:27.321Z,1.90
2019-06-15T15:31:53.811Z,1.77
2019-06-15T15:34:20.376Z,2.00
2019-06-15T15:36:46.804Z,1.83
2019-06-15T15:39:13.223Z,1.77
2019-06-15T15:41:39.727Z,1.97
2019-06-15T15:44:06.163Z,2.90
2019-06-15T15:46:32.732Z,3.33
2019-06-15T15:48:59.101Z,2.90
2019-06-15T15:51:26.166Z,3.17
2019-06-15T15:53:52.905Z,2.67
2019-06-15T15:56:19.381Z,1.97
2019-06-15T15:58:47.139Z,1.83
2019-06-15T16:01:13.876Z,2.17
2019-06-15T16:03:40.258Z,2.03
2019-06-15T16:06:07.919Z,2.43
2019-06-15T16:08:34.521Z,2.30
2019-06-15T16:11:01.161Z,2.00
2019-06-15T16:13:27.808Z,1.87
2019-06-15T16:15:54.189Z,2.00
2019-06-15T16:18:20.493Z,2.20
2019-06-15T16:20:47.228Z,2.93
2019-06-15T16:23:15.965Z,2.60
2019-06-15T16:25:41.989Z,2.50
2019-06-15T16:28:08.420Z,1.60
2019-06-15T16:30:59.758Z,1.90
2019-06-15T16:33:04.293Z,2.50
2019-06-15T16:35:31.521Z,2.50
2019-06-15T16:37:57.999Z,2.20
2019-06-15T16:40:38.189Z,2.00
2019-06-15T16:43:07.067Z,2.00
2019-06-15T16:45:33.594Z,1.90
2019-06-15T16:48:00.105Z,1.50
2019-06-15T16:50:26.648Z,2.20
2019-06-15T16:52:53.089Z,3.07
2019-06-15T16:55:19.420Z,3.30
2019-06-15T16:57:46.616Z,3.33
2019-06-15T17:00:17.677Z,2.63
2019-06-15T17:02:44.035Z,2.00
2019-06-15T17:05:10.664Z,1.90
2019-06-15T17:07:36.941Z,2.17
2019-06-15T17:10:06.509Z,2.10
2019-06-15T17:12:32.961Z,2.47
2019-06-15T17:14:59.389Z,2.30
2019-06-15T17:17:26.597Z,2.87
2019-06-15T17:19:53.179Z,2.23
2019-06-15T17:22:21.386Z,2.67
2019-06-15T17:24:48.042Z,2.97
2019-06-15T17:27:16.908Z,2.50
2019-06-15T17:29:42.788Z,1.87
2019-06-15T17:32:09.183Z,1.97
2019-06-15T17:34:36.384Z,2.47
2019-06-15T17:37:03.052Z,2.17
2019-06-15T17:39:29.890Z,2.07
2019-06-15T17:41:56.470Z,1.90
2019-06-15T17:44:22.923Z,1.97
2019-06-15T17:46:49.374Z,2.20
2019-06-15T17:49:18.017Z,1.97
2019-06-15T17:51:46.220Z,1.83
2019-06-15T17:54:12.467Z,1.90
2019-06-15T17:56:38.964Z,2.20
2019-06-15T17:59:06.486Z,2.60
2019-06-15T18:01:33.209Z,2.27
2019-06-15T18:03:59.870Z,2.10
2019-06-15T18:06:26.789Z,2.27
2019-06-15T18:08:53.433Z,2.30
2019-06-15T18:11:19.903Z,2.27
2019-06-15T18:13:47.212Z,2.13
2019-06-15T18:16:13.927Z,2.10
2019-06-15T18:18:42.536Z,2.07
2019-06-15T18:21:09.384Z,2.33
2019-06-15T18:23:36.883Z,1.80
2019-06-15T18:26:03.582Z,2.43
2019-06-15T18:28:30.321Z,2.13
2019-06-15T18:30:56.865Z,2.40
2019-06-15T18:33:23.330Z,3.80
2019-06-15T18:35:49.821Z,2.57
2019-06-15T18:38:16.459Z,2.90
2019-06-15T18:40:42.804Z,3.03
2019-06-15T18:43:09.338Z,2.77
2019-06-15T18:45:36.127Z,2.80
2019-06-15T18:48:02.965Z,2.77
2019-06-15T18:50:37.962Z,2.40
2019-06-15T18:53:06.922Z,2.07
2019-06-15T18:55:33.307Z,1.93
2019-06-15T18:57:59.675Z,2.00
2019-06-15T19:00:26.266Z,1.90
2019-06-15T19:02:52.631Z,1.80
2019-06-15T19:05:19.193Z,1.97
2019-06-15T19:07:46.675Z,1.90
2019-06-15T19:10:30.941Z,2.63
2019-06-15T19:12:57.617Z,2.10
2019-06-15T19:15:24.225Z,2.20
2019-06-15T19:17:50.812Z,2.00
2019-06-15T19:20:17.449Z,2.00
2019-06-15T19:22:43.747Z,2.13
2019-06-15T19:25:10.305Z,1.83
2019-06-15T19:27:36.800Z,2.20
2019-06-15T19:30:06.547Z,1.90
2019-06-15T19:32:33.127Z,2.20
2019-06-15T19:34:59.500Z,2.37
2019-06-15T19:37:26.138Z,1.80
2019-06-15T19:39:56.372Z,2.13
2019-06-15T19:42:20.974Z,1.67
2019-06-15T19:44:47.503Z,1.50
2019-06-15T19:47:16.211Z,1.87
2019-06-15T19:49:42.208Z,1.70
2019-06-15T19:52:08.600Z,1.57
2019-06-15T19:54:36.556Z,2.40
2019-06-15T19:57:03.211Z,1.60
2019-06-15T19:59:29.719Z,1.30
2019-06-15T20:01:56.121Z,1.57
2019-06-15T20:04:22.638Z,1.50
2019-06-15T20:06:49.001Z,1.60
2019-06-15T20:09:15.361Z,1.63
2019-06-15T20:11:41.727Z,1.80
2019-06-15T20:14:08.200Z,1.83
2019-06-15T20:16:36.108Z,4.77
2019-06-15T20:19:02.664Z,1.87
2019-06-15T20:21:30.652Z,1.87
2019-06-15T20:23:57.315Z,2.00
2019-06-15T20:26:23.788Z,1.60
2019-06-15T20:28:50.277Z,1.93
2019-06-15T20:31:16.913Z,3.13
2019-06-15T20:33:43.341Z,2.63
2019-06-15T20:36:09.816Z,2.00
2019-06-15T20:38:36.552Z,1.83
2019-06-15T20:41:03.128Z,1.70
2019-06-15T20:43:29.763Z,1.97
2019-06-15T20:45:56.331Z,1.80
2019-06-15T20:48:22.682Z,1.50
2019-06-15T20:50:49.062Z,2.00
2019-06-15T20:53:17.037Z,2.60
2019-06-15T20:55:46.432Z,2.37
2019-06-15T20:58:11.684Z,2.63
2019-06-15T21:00:38.188Z,1.90
2019-06-15T21:03:06.776Z,2.60
2019-06-15T21:05:38.022Z,1.97
2019-06-15T21:08:01.324Z,1.87
2019-06-15T21:10:27.914Z,2.43
2019-06-15T21:12:54.360Z,1.90
2019-06-15T21:15:24.541Z,2.40
2019-06-15T21:17:50.938Z,3.53
2019-06-15T21:20:17.420Z,2.60
2019-06-15T21:22:46.354Z,1.90
2019-06-15T21:25:12.607Z,1.70
2019-06-15T21:27:39.193Z,2.00
2019-06-15T21:30:07.221Z,1.97
2019-06-15T21:32:33.645Z,2.27
2019-06-15T21:34:59.880Z,2.07
2019-06-15T21:37:26.260Z,2.23
2019-06-15T21:39:52.750Z,1.80
2019-06-15T21:42:19.297Z,1.90
2019-06-15T21:44:46.959Z,2.10
2019-06-15T21:47:13.619Z,1.77
2019-06-15T21:49:40.133Z,1.70
2019-06-15T21:52:07.232Z,2.20
2019-06-15T21:54:36.069Z,1.80
2019-06-15T21:57:02.239Z,2.10
2019-06-15T21:59:28.489Z,2.30
2019-06-15T22:01:55.003Z,1.90
2019-06-15T22:04:21.360Z,2.20
2019-06-15T22:06:48.920Z,1.73
2019-06-15T22:09:20.507Z,1.77
2019-06-15T22:11:43.770Z,1.90
2019-06-15T22:14:10.469Z,2.13
2019-06-15T22:16:36.963Z,2.00
2019-06-15T22:19:05.958Z,2.07
2019-06-15T22:21:31.835Z,1.90
2019-06-15T22:23:58.331Z,2.87
2019-06-15T22:26:26.677Z,1.80
2019-06-15T22:28:53.994Z,2.17
2019-06-15T22:31:21.205Z,2.33
2019-06-15T22:33:47.705Z,2.10
2019-06-15T22:36:24.021Z,1.70
2019-06-15T22:38:42.512Z,1.93
2019-06-15T22:41:09.001Z,2.40
2019-06-15T22:43:36.368Z,2.07
2019-06-15T22:46:03.255Z,1.87
2019-06-15T22:48:29.650Z,1.83
2019-06-15T22:50:56.293Z,1.83
2019-06-15T22:53:22.617Z,2.30
2019-06-15T22:55:48.991Z,1.80
2019-06-15T22:58:17.837Z,2.27
2019-06-15T23:00:46.734Z,2.37
2019-06-15T23:03:12.001Z,2.20
2019-06-15T23:05:38.496Z,2.10
2019-06-15T23:08:06.981Z,2.33
2019-06-15T23:10:33.083Z,2.10
2019-06-15T23:12:59.455Z,2.20
2019-06-15T23:15:26.388Z,1.87
2019-06-15T23:17:53.009Z,2.03
2019-06-15T23:20:19.253Z,2.07
2019-06-15T23:22:46.779Z,2.30
2019-06-15T23:25:13.323Z,2.43
2019-06-15T23:27:39.720Z,2.03
2019-06-15T23:30:10.284Z,2.10
2019-06-15T23:32:36.630Z,2.00
2019-06-15T23:35:09.364Z,2.03
2019-06-15T23:37:37.515Z,2.20
2019-06-15T23:40:20.792Z,2.30
2019-06-15T23:42:51.648Z,2.97
2019-06-15T23:45:18.811Z,2.57
2019-06-15T23:47:46.693Z,2.73
2019-06-15T23:50:13.220Z,3.20
2019-06-15T23:52:39.750Z,2.60
2019-06-15T23:55:06.722Z,2.43
2019-06-15T23:57:33.322Z,3.10
2019-06-15T23:59:59.809Z,2.83
